createdAt,value
2023-02-14T00:00:25.690Z,32.80
2023-02-14T00:03:27.740Z,29.33
2023-02-14T00:06:35.420Z,32.63
2023-02-14T00:09:37.456Z,30.98
2023-02-14T00:12:39.475Z,25.42
2023-02-14T00:15:41.537Z,27.75
2023-02-14T00:19:15.692Z,30.23
2023-02-14T00:22:17.945Z,26.40
2023-02-14T00:25:19.988Z,28.45
2023-02-14T00:28:22.074Z,27.73
2023-02-14T00:31:24.402Z,31.77
2023-02-14T00:34:26.779Z,31.48
2023-02-14T00:37:28.791Z,31.17
2023-02-14T00:40:30.760Z,27.00
2023-02-14T00:43:32.791Z,28.75
2023-02-14T00:46:35.211Z,23.30
2023-02-14T00:49:37.218Z,32.45
2023-02-14T00:52:39.214Z,32.00
2023-02-14T00:55:41.274Z,25.35
2023-02-14T00:58:43.874Z,26.00
2023-02-14T01:01:45.915Z,28.63
2023-02-14T01:04:47.919Z,27.52
2023-02-14T01:07:49.915Z,25.87
2023-02-14T01:10:52.028Z,32.25
2023-02-14T01:13:55.041Z,30.52
2023-02-14T01:16:58.309Z,30.83
2023-02-14T01:20:00.340Z,32.78
2023-02-14T01:23:02.579Z,38.55
2023-02-14T01:26:05.718Z,40.60
2023-02-14T01:29:07.700Z,34.27
2023-02-14T01:32:10.256Z,29.08
2023-02-14T01:35:12.320Z,37.63
2023-02-14T01:38:14.352Z,36.50
2023-02-14T01:41:16.378Z,41.90
2023-02-14T01:44:18.371Z,38.97
2023-02-14T01:47:20.424Z,47.95
2023-02-14T01:50:25.607Z,48.50
2023-02-14T01:53:28.646Z,43.20
2023-02-14T01:56:36.102Z,46.30
2023-02-14T01:59:41.031Z,45.07
2023-02-14T02:02:43.384Z,38.08
2023-02-14T02:05:48.675Z,38.10
2023-02-14T02:08:55.964Z,36.30
2023-02-14T02:11:58.009Z,32.45
2023-02-14T02:15:00.395Z,36.97
2023-02-14T02:18:05.594Z,42.28
2023-02-14T02:21:25.478Z,40.60
2023-02-14T02:24:28.644Z,40.22
2023-02-14T02:27:54.176Z,37.15
2023-02-14T02:31:16.536Z,33.57
2023-02-14T02:34:37.384Z,37.38
2023-02-14T02:37:42.118Z,34.92
2023-02-14T02:40:47.165Z,37.80
2023-02-14T02:44:03.420Z,27.77
2023-02-14T02:47:09.229Z,29.15
2023-02-14T02:50:50.470Z,28.25
2023-02-14T02:53:56.226Z,26.90
2023-02-14T02:57:01.328Z,21.88
2023-02-14T03:00:05.393Z,25.83
2023-02-14T03:03:26.211Z,25.53
2023-02-14T03:06:30.084Z,25.52
2023-02-14T03:09:32.177Z,23.98
2023-02-14T03:12:34.231Z,28.67
2023-02-14T03:15:46.849Z,29.58
2023-02-14T03:18:57.726Z,29.95
2023-02-14T03:22:18.222Z,35.67
2023-02-14T03:25:26.096Z,30.75
2023-02-14T03:28:43.423Z,33.35
2023-02-14T03:31:45.868Z,31.77
2023-02-14T03:34:53.583Z,33.10
2023-02-14T03:38:15.917Z,34.90
2023-02-14T03:41:22.613Z,34.55
2023-02-14T03:44:28.546Z,29.07
2023-02-14T03:47:33.159Z,30.20
2023-02-14T03:50:36.716Z,29.67
2023-02-14T03:53:40.283Z,35.15
2023-02-14T03:56:46.594Z,26.10
2023-02-14T03:59:48.788Z,33.65
2023-02-14T04:02:55.072Z,36.75
2023-02-14T04:05:57.174Z,29.93
2023-02-14T04:08:59.179Z,31.60
2023-02-14T04:12:01.211Z,32.75
2023-02-14T04:15:03.356Z,28.90
2023-02-14T04:18:23.806Z,29.95
2023-02-14T04:21:25.919Z,28.95
2023-02-14T04:24:27.992Z,26.10
2023-02-14T04:27:30.024Z,29.80
2023-02-14T04:30:32.085Z,32.28
2023-02-14T04:33:34.476Z,29.85
2023-02-14T04:36:36.478Z,28.40
2023-02-14T04:39:38.645Z,28.65
2023-02-14T04:42:40.691Z,29.75
2023-02-14T04:45:42.691Z,30.30
2023-02-14T04:48:44.669Z,30.00
2023-02-14T04:51:46.731Z,29.77
2023-02-14T04:54:48.922Z,31.58
2023-02-14T04:57:50.893Z,31.50
2023-02-14T05:00:52.978Z,30.95
2023-02-14T05:03:55.014Z,26.77
2023-02-14T05:06:57.155Z,18.87
2023-02-14T05:09:59.260Z,29.98
2023-02-14T05:13:02.079Z,27.48
2023-02-14T05:16:04.202Z,56.87
2023-02-14T05:19:06.265Z,53.67
2023-02-14T05:22:08.285Z,41.28
2023-02-14T05:25:10.275Z,35.53
2023-02-14T05:28:12.317Z,40.83
2023-02-14T05:31:14.387Z,38.38
2023-02-14T05:34:16.497Z,33.40
2023-02-14T05:37:18.470Z,32.40
2023-02-14T05:40:20.522Z,32.92
2023-02-14T05:43:22.539Z,31.45
2023-02-14T05:46:24.553Z,33.27
2023-02-14T05:49:26.615Z,31.27
2023-02-14T05:52:28.671Z,33.38
2023-02-14T05:55:30.732Z,32.90
2023-02-14T05:58:33.265Z,28.63
2023-02-14T06:01:35.336Z,30.75
2023-02-14T06:04:37.565Z,29.13
2023-02-14T06:07:39.754Z,25.53
2023-02-14T06:10:41.962Z,30.65
2023-02-14T06:13:44.144Z,31.58
2023-02-14T06:16:46.271Z,29.73
2023-02-14T06:19:48.534Z,31.73
2023-02-14T06:22:50.915Z,29.70
2023-02-14T06:25:52.913Z,29.60
2023-02-14T06:28:55.900Z,36.33
2023-02-14T06:31:58.103Z,38.75
2023-02-14T06:35:00.270Z,32.75
2023-02-14T06:38:02.357Z,37.90
2023-02-14T06:41:05.571Z,30.70
2023-02-14T06:44:10.596Z,35.30
2023-02-14T06:47:12.881Z,41.37
2023-02-14T06:50:15.281Z,39.85
2023-02-14T06:53:17.320Z,41.45
2023-02-14T06:56:19.609Z,43.05
2023-02-14T06:59:21.890Z,36.58
2023-02-14T07:02:25.110Z,34.72
2023-02-14T07:05:28.347Z,31.20
2023-02-14T07:08:30.912Z,31.07
2023-02-14T07:11:33.710Z,31.15
2023-02-14T07:14:36.892Z,25.73
2023-02-14T07:17:39.261Z,26.63
2023-02-14T07:20:41.456Z,24.73
2023-02-14T07:23:46.572Z,24.17
2023-02-14T07:26:48.618Z,19.92
2023-02-14T07:29:50.744Z,23.75
2023-02-14T07:32:52.916Z,23.98
2023-02-14T07:35:55.131Z,20.27
2023-02-14T07:38:57.505Z,24.63
2023-02-14T07:41:59.910Z,26.65
2023-02-14T07:45:12.542Z,20.42
2023-02-14T07:48:25.676Z,16.17
2023-02-14T07:51:31.237Z,24.42
2023-02-14T07:54:35.412Z,22.33
2023-02-14T07:57:38.736Z,15.73
2023-02-14T08:00:41.310Z,21.65
2023-02-14T08:03:49.749Z,26.23
2023-02-14T08:06:53.262Z,22.40
2023-02-14T08:09:55.315Z,20.43
2023-02-14T08:13:00.214Z,19.23
2023-02-14T08:16:05.107Z,22.02
2023-02-14T08:19:07.358Z,24.37
2023-02-14T08:22:09.505Z,20.40
2023-02-14T08:25:11.605Z,24.00
2023-02-14T08:28:17.158Z,20.80
2023-02-14T08:31:35.281Z,22.63
2023-02-14T08:34:38.598Z,20.80
2023-02-14T08:37:40.981Z,24.63
2023-02-14T08:40:43.916Z,22.47
2023-02-14T08:43:47.025Z,21.35
2023-02-14T08:46:56.589Z,24.42
2023-02-14T08:50:03.414Z,25.77
2023-02-14T08:53:10.551Z,24.05
2023-02-14T08:56:13.589Z,25.27
2023-02-14T08:59:16.395Z,28.02
2023-02-14T09:02:20.731Z,22.93
2023-02-14T09:05:23.625Z,23.58
2023-02-14T09:08:25.927Z,23.30
2023-02-14T09:11:27.989Z,23.93
2023-02-14T09:14:32.058Z,21.42
2023-02-14T09:17:34.369Z,22.85
2023-02-14T09:20:36.850Z,22.17
2023-02-14T09:23:39.078Z,23.27
2023-02-14T09:26:42.462Z,21.50
2023-02-14T09:29:44.753Z,23.20
2023-02-14T09:32:46.985Z,21.92
2023-02-14T09:35:50.210Z,22.63
2023-02-14T09:38:52.240Z,23.80
2023-02-14T09:41:57.154Z,23.35
2023-02-14T09:45:26.234Z,23.42
2023-02-14T09:48:34.281Z,24.55
2023-02-14T09:51:38.457Z,23.67
2023-02-14T09:54:42.784Z,22.37
2023-02-14T09:57:59.856Z,23.30
2023-02-14T10:01:34.185Z,22.63
2023-02-14T10:04:38.200Z,23.85
2023-02-14T10:08:00.230Z,24.20
2023-02-14T10:11:07.204Z,25.43
2023-02-14T10:14:12.137Z,24.92
2023-02-14T10:17:19.464Z,25.17
2023-02-14T10:20:27.363Z,23.33
2023-02-14T10:23:41.062Z,22.97
2023-02-14T10:26:44.569Z,23.33
2023-02-14T10:29:46.661Z,23.88
2023-02-14T10:32:50.400Z,22.83
2023-02-14T10:36:01.472Z,23.98
2023-02-14T10:39:16.126Z,25.77
2023-02-14T10:42:21.365Z,25.10
2023-02-14T10:45:30.768Z,23.92
2023-02-14T10:49:12.231Z,23.77
2023-02-14T10:52:17.059Z,22.48
2023-02-14T10:55:33.030Z,23.87
2023-02-14T10:58:38.594Z,24.33
2023-02-14T11:01:41.046Z,23.90
2023-02-14T11:04:44.062Z,22.17
2023-02-14T11:07:46.144Z,25.10
2023-02-14T11:10:48.321Z,26.53
2023-02-14T11:13:50.737Z,21.70
2023-02-14T11:16:53.467Z,23.63
2023-02-14T11:19:57.183Z,22.40
2023-02-14T11:22:59.389Z,22.42
2023-02-14T11:26:03.886Z,23.50
2023-02-14T11:29:13.591Z,22.60
2023-02-14T11:32:20.419Z,22.15
2023-02-14T11:35:27.070Z,23.25
2023-02-14T11:38:31.014Z,24.30
2023-02-14T11:41:53.926Z,22.10
2023-02-14T11:44:56.640Z,22.87
2023-02-14T11:48:19.999Z,20.73
2023-02-14T11:51:32.019Z,23.17
2023-02-14T11:54:36.061Z,24.08
2023-02-14T11:57:39.598Z,22.80
2023-02-14T12:00:51.142Z,22.30
2023-02-14T12:03:54.621Z,22.13
2023-02-14T12:07:11.217Z,21.27
2023-02-14T12:10:13.371Z,23.20
2023-02-14T12:13:26.108Z,22.20
2023-02-14T12:16:48.567Z,19.70
2023-02-14T12:20:19.902Z,19.73
2023-02-14T12:23:51.751Z,21.85
2023-02-14T12:27:12.969Z,19.85
2023-02-14T12:30:16.669Z,19.83
2023-02-14T12:33:20.045Z,19.20
2023-02-14T12:36:28.488Z,20.77
2023-02-14T12:39:36.841Z,20.25
2023-02-14T12:42:50.902Z,21.35
2023-02-14T12:46:14.167Z,22.17
2023-02-14T12:49:25.190Z,20.60
2023-02-14T12:52:27.251Z,21.20
2023-02-14T12:55:45.230Z,19.63
2023-02-14T12:58:50.694Z,20.77
2023-02-14T13:02:01.998Z,21.13
2023-02-14T13:05:15.572Z,19.83
2023-02-14T13:08:17.855Z,20.92
2023-02-14T13:11:29.213Z,20.20
2023-02-14T13:14:49.828Z,19.98
2023-02-14T13:18:10.515Z,20.93
2023-02-14T13:21:15.691Z,20.60
2023-02-14T13:24:19.242Z,19.63
2023-02-14T13:27:26.061Z,21.98
2023-02-14T13:30:35.349Z,20.65
2023-02-14T13:33:41.719Z,20.47
2023-02-14T13:36:44.031Z,18.13
2023-02-14T13:39:48.968Z,19.48
2023-02-14T13:42:52.429Z,19.85
2023-02-14T13:45:54.946Z,20.23
2023-02-14T13:49:16.896Z,20.07
2023-02-14T13:52:37.417Z,21.23
2023-02-14T13:55:44.010Z,19.70
2023-02-14T13:58:51.184Z,15.18
2023-02-14T14:01:53.268Z,13.68
2023-02-14T14:04:55.320Z,12.73
2023-02-14T14:08:18.350Z,13.40
2023-02-14T14:11:23.410Z,13.95
2023-02-14T14:14:30.396Z,13.27
2023-02-14T14:17:39.577Z,13.50
2023-02-14T14:20:41.913Z,11.57
2023-02-14T14:23:44.262Z,13.80
2023-02-14T14:26:48.331Z,14.48
2023-02-14T14:29:52.711Z,19.48
2023-02-14T14:32:55.167Z,18.45
2023-02-14T14:36:00.601Z,18.97
2023-02-14T14:39:02.900Z,19.07
2023-02-14T14:42:06.996Z,20.40
2023-02-14T14:45:38.419Z,17.38
2023-02-14T14:48:42.553Z,17.73
2023-02-14T14:51:45.793Z,16.57
2023-02-14T14:54:47.900Z,15.23
2023-02-14T14:57:56.992Z,15.00
2023-02-14T15:00:59.162Z,13.27
2023-02-14T15:04:12.404Z,13.53
2023-02-14T15:07:27.733Z,13.95
2023-02-14T15:10:30.789Z,13.55
2023-02-14T15:13:50.217Z,17.23
2023-02-14T15:16:53.452Z,17.73
2023-02-14T15:20:00.316Z,14.50
2023-02-14T15:23:03.086Z,15.52
2023-02-14T15:26:05.454Z,14.83
2023-02-14T15:29:07.739Z,16.73
2023-02-14T15:32:10.851Z,16.42
2023-02-14T15:35:16.271Z,17.92
2023-02-14T15:38:20.082Z,20.60
2023-02-14T15:41:24.481Z,19.45
2023-02-14T15:44:27.087Z,18.02
2023-02-14T15:47:29.133Z,18.20
2023-02-14T15:50:32.628Z,19.27
2023-02-14T15:53:43.073Z,18.25
2023-02-14T15:56:46.903Z,19.40
2023-02-14T15:59:49.221Z,20.85
2023-02-14T16:02:53.462Z,21.35
2023-02-14T16:05:56.070Z,21.13
2023-02-14T16:08:58.364Z,21.50
2023-02-14T16:12:00.450Z,22.50
2023-02-14T16:15:10.070Z,23.02
2023-02-14T16:18:19.169Z,28.10
2023-02-14T16:21:39.476Z,26.92
2023-02-14T16:24:42.105Z,28.25
2023-02-14T16:27:44.270Z,42.65
2023-02-14T16:30:47.685Z,43.75
2023-02-14T16:33:49.690Z,35.03
2023-02-14T16:36:51.735Z,33.67
2023-02-14T16:39:55.564Z,32.20
2023-02-14T16:42:59.229Z,34.03
2023-02-14T16:46:01.349Z,28.67
2023-02-14T16:49:03.485Z,27.27
2023-02-14T16:52:06.005Z,29.08
2023-02-14T16:55:15.406Z,30.80
2023-02-14T16:58:19.589Z,31.27
2023-02-14T17:01:21.720Z,33.10
2023-02-14T17:04:24.154Z,33.70
2023-02-14T17:07:26.699Z,39.08
2023-02-14T17:10:29.057Z,44.70
2023-02-14T17:13:33.562Z,42.67
2023-02-14T17:16:35.612Z,37.42
2023-02-14T17:19:37.716Z,37.63
2023-02-14T17:22:42.523Z,38.53
2023-02-14T17:25:44.507Z,39.70
2023-02-14T17:28:49.206Z,44.15
2023-02-14T17:31:51.348Z,42.58
2023-02-14T17:34:53.529Z,46.08
2023-02-14T17:37:55.595Z,41.72
2023-02-14T17:40:57.597Z,41.53
2023-02-14T17:44:02.448Z,45.00
2023-02-14T17:47:04.839Z,49.22
2023-02-14T17:50:07.251Z,43.93
2023-02-14T17:53:09.593Z,44.35
2023-02-14T17:56:17.988Z,47.95
2023-02-14T17:59:20.367Z,49.42
2023-02-14T18:02:22.405Z,35.08
2023-02-14T18:05:24.464Z,31.02
2023-02-14T18:08:27.288Z,38.22
2023-02-14T18:11:29.354Z,45.83
2023-02-14T18:14:31.615Z,35.85
2023-02-14T18:17:34.089Z,40.28
2023-02-14T18:20:36.742Z,44.03
2023-02-14T18:23:39.247Z,47.00
2023-02-14T18:26:41.694Z,46.28
2023-02-14T18:29:43.792Z,58.88
2023-02-14T18:32:45.830Z,61.88
2023-02-14T18:35:47.856Z,48.95
2023-02-14T18:38:49.942Z,32.88
2023-02-14T18:41:51.994Z,33.87
2023-02-14T18:44:54.022Z,39.75
2023-02-14T18:47:56.158Z,34.50
2023-02-14T18:51:10.340Z,45.60
2023-02-14T18:54:12.398Z,54.10
2023-02-14T18:57:14.357Z,48.72
2023-02-14T19:00:16.962Z,49.90
2023-02-14T19:03:18.976Z,40.15
2023-02-14T19:06:21.535Z,39.28
2023-02-14T19:09:27.426Z,42.20
2023-02-14T19:12:35.927Z,42.13
2023-02-14T19:15:37.966Z,44.78
2023-02-14T19:18:40.207Z,46.38
2023-02-14T19:21:42.366Z,41.57
2023-02-14T19:24:44.471Z,39.95
2023-02-14T19:27:46.539Z,43.60
2023-02-14T19:30:48.491Z,41.25
2023-02-14T19:33:51.462Z,46.33
2023-02-14T19:36:53.795Z,47.13
2023-02-14T19:39:55.780Z,39.05
2023-02-14T19:42:58.054Z,39.80
2023-02-14T19:46:00.178Z,39.22
2023-02-14T19:49:02.334Z,34.05
2023-02-14T19:52:06.203Z,31.60
2023-02-14T19:55:19.668Z,36.90
2023-02-14T19:58:21.854Z,41.58
2023-02-14T20:01:29.740Z,42.58
2023-02-14T20:04:32.517Z,30.23
2023-02-14T20:07:34.560Z,30.75
2023-02-14T20:10:36.612Z,29.50
2023-02-14T20:13:38.740Z,30.67
2023-02-14T20:16:41.268Z,31.10
2023-02-14T20:19:43.391Z,32.33
2023-02-14T20:22:45.393Z,37.97
2023-02-14T20:25:47.425Z,32.35
2023-02-14T20:28:49.459Z,32.53
2023-02-14T20:31:52.919Z,36.75
2023-02-14T20:34:55.704Z,34.42
2023-02-14T20:37:58.304Z,29.58
2023-02-14T20:41:04.417Z,34.45
2023-02-14T20:44:11.014Z,33.47
2023-02-14T20:47:13.047Z,32.22
2023-02-14T20:50:15.249Z,32.05
2023-02-14T20:53:17.218Z,30.37
2023-02-14T20:56:20.087Z,30.30
2023-02-14T20:59:27.381Z,35.05
2023-02-14T21:02:29.466Z,32.03
2023-02-14T21:05:31.645Z,32.92
2023-02-14T21:08:33.767Z,32.40
2023-02-14T21:11:35.968Z,28.95
2023-02-14T21:14:38.005Z,31.47
2023-02-14T21:17:40.046Z,31.25
2023-02-14T21:20:42.086Z,32.03
2023-02-14T21:23:44.166Z,29.40
2023-02-14T21:26:46.324Z,29.98
2023-02-14T21:29:48.319Z,28.88
2023-02-14T21:32:50.539Z,33.75
2023-02-14T21:35:52.610Z,28.00
2023-02-14T21:38:55.354Z,31.20
2023-02-14T21:41:57.615Z,31.08
2023-02-14T21:45:18.049Z,29.47
2023-02-14T21:48:38.570Z,31.67
2023-02-14T21:51:40.717Z,33.08
2023-02-14T21:54:43.126Z,31.47
2023-02-14T21:57:45.083Z,26.92
2023-02-14T22:00:48.192Z,32.05
2023-02-14T22:03:50.287Z,29.10
2023-02-14T22:06:52.336Z,32.50
2023-02-14T22:09:54.413Z,32.53
2023-02-14T22:12:56.448Z,25.65
2023-02-14T22:16:06.127Z,30.10
2023-02-14T22:19:08.573Z,28.55
2023-02-14T22:22:10.590Z,30.65
2023-02-14T22:25:12.647Z,28.90
2023-02-14T22:28:14.583Z,28.75
2023-02-14T22:31:17.661Z,33.33
2023-02-14T22:34:19.868Z,29.85
2023-02-14T22:37:21.946Z,29.25
2023-02-14T22:40:23.991Z,29.40
2023-02-14T22:43:27.458Z,29.83
2023-02-14T22:46:29.564Z,30.90
2023-02-14T22:49:31.612Z,33.92
2023-02-14T22:52:34.525Z,30.50
2023-02-14T22:55:36.515Z,31.10
2023-02-14T22:58:38.542Z,30.75
2023-02-14T23:01:40.627Z,31.70
2023-02-14T23:04:42.663Z,31.80
2023-02-14T23:07:44.699Z,31.45
2023-02-14T23:10:46.659Z,31.98
2023-02-14T23:14:07.316Z,29.45
2023-02-14T23:17:32.226Z,23.67
2023-02-14T23:20:52.960Z,27.95
2023-02-14T23:23:55.004Z,24.17
2023-02-14T23:26:57.427Z,34.87
2023-02-14T23:29:59.619Z,30.55
2023-02-14T23:33:01.682Z,36.80
2023-02-14T23:36:04.229Z,30.20
2023-02-14T23:39:06.792Z,29.83
2023-02-14T23:42:10.632Z,32.28
2023-02-14T23:45:31.251Z,30.73
2023-02-14T23:48:33.289Z,31.70
2023-02-14T23:51:35.681Z,28.80
2023-02-14T23:54:38.249Z,32.03
2023-02-14T23:57:40.231Z,33.63
